Airfield :
LOGIN :

Register | Disclaimer

   EN    FR    IT 

 










Legend :    VFR   Marginal VFR   IFR   Intensive IFR   Very Intensive IFR
Visi :
Ceiling :
>= 8 km
>= 3000ft
5 to 8 km
1000 to 3000 ft
1500m to 5 km
500 to 1000 ft
800 to 1500m
200 to 500 ft
< 800m
< 200 ft
Symbols :   Thunderstorms  Fog  Heavy snow  Heavy precipitations  Wind > 20 kt
SIGMETs :     Misc.  Thunderstorms  Icing  Turbulence  Mountain Waves  Volcanic Ashes







- Airport Elevation : 392 ft
- IATA code : CDG
- Download approach charts


LFPG - Paris-Aeroport Charles De Gaulle

CURRENT METAR :
  • 190700Z 14007KT CAVOK 15/12 Q1009

EXPIRED METARs :
  • 190630Z 14008KT CAVOK 14/11 Q1009
  • 190600Z 14008KT CAVOK 14/11 Q1009
  • 190530Z 14007KT CAVOK 14/11 Q1009
  • 190500Z 14007KT CAVOK 14/11 Q1009 NOSIG
  • 190430Z 14009KT CAVOK 14/11 Q1009 NOSIG

TAF TAF LFPG
Valid from the 19 at 06:00 until the 20 at 12:00 UTC


190500Z 1906/2012 14008KT CAVOK
BECMG 1910/1912 19015G25KT
BECMG 2000/2002 4000 -RA
PROB40
TEMPO 2001/2004 BKN012
PROB30
TEMPO 2001/2004 FEW008TCU BKN008 TX21/1915Z TN13/2006Z
ATIS : +33 1 48 62 10 92
No reported NOTAMs for that airfield.



MET'MAP, your aeronautical weather chart ! - Copyright ORBIFLY December 2007 - Disclaimer

ORBIFLY MET'MAP TEAM :

Programming & Development : Alexandra Zaïnal
Concept & Development : Baudouin d'Aumeries
Co-Development & Prog : Marc-Olivier Méhu
Technical & hardware support : Manuel Goepfert

Contact : metmap@orbifly.com




SOURCES & CREDITS :

   NOAA